createdAt,value
2022-12-05T00:00:55.734Z,17.10
2022-12-05T00:03:23.150Z,17.23
2022-12-05T00:05:50.065Z,17.50
2022-12-05T00:08:16.588Z,17.03
2022-12-05T00:10:43.536Z,18.00
2022-12-05T00:13:10.496Z,18.07
2022-12-05T00:15:40.028Z,16.47
2022-12-05T00:18:07.024Z,16.77
2022-12-05T00:20:33.789Z,17.47
2022-12-05T00:23:00.288Z,16.60
2022-12-05T00:25:26.874Z,16.40
2022-12-05T00:27:53.387Z,16.60
2022-12-05T00:30:19.885Z,17.57
2022-12-05T00:32:46.350Z,16.73
2022-12-05T00:35:12.927Z,17.47
2022-12-05T00:37:39.632Z,17.57
2022-12-05T00:40:06.778Z,16.00
2022-12-05T00:42:33.460Z,17.53
2022-12-05T00:44:59.960Z,16.50
2022-12-05T00:47:26.513Z,17.30
2022-12-05T00:49:53.077Z,16.23
2022-12-05T00:52:19.619Z,16.17
2022-12-05T00:54:46.233Z,15.80
2022-12-05T00:57:12.735Z,17.07
2022-12-05T00:59:40.418Z,16.27
2022-12-05T01:02:07.128Z,17.10
2022-12-05T01:04:33.690Z,16.03
2022-12-05T01:07:00.586Z,17.10
2022-12-05T01:09:27.346Z,16.80
2022-12-05T01:11:54.753Z,16.57
2022-12-05T01:14:23.734Z,17.20
2022-12-05T01:16:52.006Z,17.23
2022-12-05T01:19:24.773Z,17.23
2022-12-05T01:21:52.056Z,16.93
2022-12-05T01:24:20.042Z,17.87
2022-12-05T01:26:46.837Z,17.50
2022-12-05T01:29:14.974Z,18.03
2022-12-05T01:31:42.221Z,17.67
2022-12-05T01:34:12.100Z,18.50
2022-12-05T01:36:39.483Z,18.60
2022-12-05T01:39:07.354Z,17.53
2022-12-05T01:41:37.406Z,18.00
2022-12-05T01:44:08.564Z,18.03
2022-12-05T01:46:37.506Z,17.47
2022-12-05T01:49:13.757Z,16.97
2022-12-05T01:51:42.664Z,15.73
2022-12-05T01:54:09.714Z,17.27
2022-12-05T01:56:36.761Z,16.30
2022-12-05T01:59:05.787Z,17.07
2022-12-05T02:01:32.808Z,16.70
2022-12-05T02:03:59.715Z,16.80
2022-12-05T02:06:27.651Z,16.40
2022-12-05T02:08:54.538Z,18.00
2022-12-05T02:11:22.725Z,17.57
2022-12-05T02:13:52.043Z,17.67
2022-12-05T02:16:45.594Z,17.93
2022-12-05T02:19:32.430Z,16.17
2022-12-05T02:21:58.847Z,17.97
2022-12-05T02:24:43.418Z,17.77
2022-12-05T02:27:48.050Z,18.87
2022-12-05T02:30:17.637Z,18.00
2022-12-05T02:33:09.116Z,18.83
2022-12-05T02:36:05.582Z,18.13
2022-12-05T02:38:45.221Z,16.87
2022-12-05T02:41:33.710Z,16.00
2022-12-05T02:44:04.726Z,16.43
2022-12-05T02:46:32.511Z,17.33
2022-12-05T02:49:06.050Z,18.03
2022-12-05T02:51:36.856Z,18.07
2022-12-05T02:54:06.547Z,16.57
2022-12-05T02:56:34.913Z,17.57
2022-12-05T02:59:02.162Z,18.83
2022-12-05T03:01:31.112Z,17.23
2022-12-05T03:04:01.362Z,17.00
2022-12-05T03:06:43.534Z,17.20
2022-12-05T03:09:24.088Z,17.20
2022-12-05T03:11:55.141Z,17.00
2022-12-05T03:14:29.930Z,17.87
2022-12-05T03:17:01.709Z,16.53
2022-12-05T03:19:48.594Z,16.90
2022-12-05T03:22:33.604Z,16.93
2022-12-05T03:25:01.225Z,16.30
2022-12-05T03:27:53.186Z,16.73
2022-12-05T03:30:21.728Z,17.00
2022-12-05T03:33:11.216Z,17.50
2022-12-05T03:35:42.724Z,16.83
2022-12-05T03:38:27.866Z,16.47
2022-12-05T03:40:57.051Z,16.70
2022-12-05T03:43:54.980Z,17.07
2022-12-05T03:46:27.246Z,18.13
2022-12-05T03:49:02.872Z,17.13
2022-12-05T03:51:35.171Z,16.90
2022-12-05T03:54:14.914Z,17.67
2022-12-05T03:56:49.003Z,15.90
2022-12-05T03:59:38.496Z,16.07
2022-12-05T04:02:08.647Z,16.20
2022-12-05T04:04:38.529Z,16.47
2022-12-05T04:07:07.455Z,16.50
2022-12-05T04:09:40.306Z,15.70
2022-12-05T04:12:14.804Z,16.53
2022-12-05T04:14:48.005Z,15.63
2022-12-05T04:17:24.547Z,16.13
2022-12-05T04:20:13.907Z,15.37
2022-12-05T04:22:40.940Z,15.93
2022-12-05T04:25:29.477Z,15.87
2022-12-05T04:28:21.884Z,15.73
2022-12-05T04:31:04.322Z,15.37
2022-12-05T04:33:56.274Z,15.57
2022-12-05T04:36:26.999Z,15.63
2022-12-05T04:39:03.966Z,14.70
2022-12-05T04:41:37.645Z,14.87
2022-12-05T04:44:09.308Z,14.70
2022-12-05T04:46:36.944Z,14.33
2022-12-05T04:49:07.546Z,15.40
2022-12-05T04:51:35.473Z,15.00
2022-12-05T04:54:10.390Z,14.63
2022-12-05T04:56:37.763Z,14.43
2022-12-05T04:59:04.776Z,14.40
2022-12-05T05:01:36.169Z,15.20
2022-12-05T05:04:07.508Z,14.57
2022-12-05T05:06:39.823Z,15.10
2022-12-05T05:09:06.949Z,15.23
2022-12-05T05:11:35.519Z,14.63
2022-12-05T05:14:03.406Z,14.73
2022-12-05T05:16:35.854Z,15.07
2022-12-05T05:19:02.828Z,15.37
2022-12-05T05:21:34.442Z,14.47
2022-12-05T05:24:01.424Z,15.37
2022-12-05T05:26:30.379Z,14.37
2022-12-05T05:28:57.970Z,14.90
2022-12-05T05:31:24.708Z,15.53
2022-12-05T05:33:52.890Z,14.53
2022-12-05T05:36:20.741Z,14.27
2022-12-05T05:38:49.587Z,15.40
2022-12-05T05:41:22.104Z,15.07
2022-12-05T05:43:49.352Z,14.73
2022-12-05T05:46:17.868Z,14.53
2022-12-05T05:48:44.456Z,13.40
2022-12-05T05:51:12.449Z,13.90
2022-12-05T05:53:39.499Z,14.40
2022-12-05T05:56:11.417Z,14.80
2022-12-05T05:58:38.303Z,13.70
2022-12-05T06:01:05.989Z,13.63
2022-12-05T06:03:32.953Z,13.90
2022-12-05T06:06:01.198Z,13.50
2022-12-05T06:08:33.042Z,12.47
2022-12-05T06:10:59.822Z,13.70
2022-12-05T06:13:26.416Z,12.40
2022-12-05T06:15:52.956Z,12.90
2022-12-05T06:18:19.663Z,14.00
2022-12-05T06:20:56.805Z,14.07
2022-12-05T06:23:24.452Z,14.10
2022-12-05T06:25:55.323Z,13.93
2022-12-05T06:28:24.054Z,13.07
2022-12-05T06:30:51.092Z,12.43
2022-12-05T06:33:18.759Z,13.30
2022-12-05T06:35:46.886Z,13.13
2022-12-05T06:38:13.518Z,12.30
2022-12-05T06:40:42.181Z,13.60
2022-12-05T06:43:08.887Z,13.33
2022-12-05T06:45:38.356Z,13.13
2022-12-05T06:48:05.153Z,12.93
2022-12-05T06:50:31.839Z,12.77
2022-12-05T06:52:58.442Z,14.40
2022-12-05T06:55:24.934Z,13.07
2022-12-05T06:57:51.498Z,13.67
2022-12-05T07:00:36.660Z,13.13
2022-12-05T07:03:03.368Z,12.60
2022-12-05T07:05:29.905Z,12.00
2022-12-05T07:07:56.595Z,12.53
2022-12-05T07:10:23.141Z,11.77
2022-12-05T07:12:49.741Z,11.30
2022-12-05T07:15:16.385Z,11.10
2022-12-05T07:17:43.039Z,12.30
2022-12-05T07:20:12.624Z,11.90
2022-12-05T07:22:39.124Z,11.87
2022-12-05T07:25:06.216Z,11.83
2022-12-05T07:27:34.112Z,12.27
2022-12-05T07:30:01.255Z,12.57
2022-12-05T07:32:32.265Z,12.90
2022-12-05T07:34:59.020Z,12.97
2022-12-05T07:37:25.594Z,12.70
2022-12-05T07:39:55.539Z,13.20
2022-12-05T07:42:22.247Z,12.20
2022-12-05T07:44:48.836Z,13.23
2022-12-05T07:47:15.407Z,14.23
2022-12-05T07:49:42.070Z,12.67
2022-12-05T07:52:09.493Z,12.00
2022-12-05T07:54:35.952Z,13.30
2022-12-05T07:57:02.595Z,12.87
2022-12-05T07:59:29.103Z,12.33
2022-12-05T08:01:55.823Z,11.77
2022-12-05T08:04:22.792Z,12.30
2022-12-05T08:06:49.336Z,12.67
2022-12-05T08:09:15.900Z,11.87
2022-12-05T08:11:42.442Z,12.63
2022-12-05T08:14:13.047Z,12.20
2022-12-05T08:16:39.700Z,12.03
2022-12-05T08:19:08.578Z,11.50
2022-12-05T08:21:35.466Z,11.87
2022-12-05T08:24:05.349Z,12.53
2022-12-05T08:26:33.258Z,11.83
2022-12-05T08:29:03.297Z,12.00
2022-12-05T08:31:32.096Z,12.13
2022-12-05T08:33:59.853Z,11.93
2022-12-05T08:36:27.489Z,10.87
2022-12-05T08:38:59.129Z,11.47
2022-12-05T08:41:28.814Z,11.40
2022-12-05T08:44:01.479Z,10.97
2022-12-05T08:46:28.068Z,10.47
2022-12-05T08:48:54.624Z,11.87
2022-12-05T08:51:21.515Z,11.17
2022-12-05T08:53:48.764Z,10.70
2022-12-05T08:56:15.331Z,11.37
2022-12-05T08:58:41.991Z,10.97
2022-12-05T09:01:11.949Z,10.90
2022-12-05T09:03:43.290Z,10.40
2022-12-05T09:06:19.981Z,11.27
2022-12-05T09:08:46.948Z,11.40
2022-12-05T09:11:19.930Z,10.47
2022-12-05T09:13:47.643Z,10.20
2022-12-05T09:16:22.678Z,10.20
2022-12-05T09:18:51.187Z,10.83
2022-12-05T09:21:23.329Z,10.73
2022-12-05T09:23:50.981Z,11.37
2022-12-05T09:26:20.412Z,9.63
2022-12-05T09:28:47.443Z,10.50
2022-12-05T09:31:16.537Z,10.67
2022-12-05T09:33:43.524Z,11.07
2022-12-05T09:36:29.280Z,9.97
2022-12-05T09:38:59.119Z,9.70
2022-12-05T09:42:07.932Z,10.43
2022-12-05T09:44:37.559Z,9.90
2022-12-05T09:47:28.776Z,10.27
2022-12-05T09:50:24.814Z,10.53
2022-12-05T09:53:03.379Z,11.10
2022-12-05T09:55:41.632Z,11.13
2022-12-05T09:58:28.061Z,11.73
2022-12-05T10:01:00.703Z,10.27
2022-12-05T10:03:43.535Z,10.90
2022-12-05T10:06:26.700Z,11.23
2022-12-05T10:09:17.958Z,10.70
2022-12-05T10:12:00.288Z,12.07
2022-12-05T10:14:40.669Z,11.40
2022-12-05T10:17:29.258Z,10.80
2022-12-05T10:19:59.211Z,10.23
2022-12-05T10:22:30.746Z,11.00
2022-12-05T10:25:02.734Z,11.67
2022-12-05T10:27:38.223Z,10.50
2022-12-05T10:30:21.881Z,10.97
2022-12-05T10:33:06.402Z,11.33
2022-12-05T10:35:38.670Z,10.20
2022-12-05T10:38:13.775Z,10.57
2022-12-05T10:40:42.384Z,9.73
2022-12-05T10:43:13.717Z,10.13
2022-12-05T10:45:45.105Z,10.23
2022-12-05T10:48:13.116Z,9.97
2022-12-05T10:50:42.417Z,11.23
2022-12-05T10:53:13.465Z,10.70
2022-12-05T10:56:21.600Z,9.97
2022-12-05T10:58:34.413Z,10.63
2022-12-05T11:01:07.058Z,11.10
2022-12-05T11:03:37.265Z,12.17
2022-12-05T11:06:16.300Z,11.73
2022-12-05T11:09:03.631Z,11.20
2022-12-05T11:11:33.465Z,11.77
2022-12-05T11:14:01.906Z,11.63
2022-12-05T11:16:34.874Z,11.13
2022-12-05T11:19:21.661Z,12.50
2022-12-05T11:21:49.394Z,12.87
2022-12-05T11:24:23.243Z,13.87
2022-12-05T11:26:50.767Z,13.13
2022-12-05T11:29:38.121Z,12.63
2022-12-05T11:32:09.447Z,11.80
2022-12-05T11:34:41.653Z,11.53
2022-12-05T11:37:23.094Z,12.03
2022-12-05T11:39:49.562Z,13.33
2022-12-05T11:42:41.692Z,11.27
2022-12-05T11:45:33.591Z,11.43
2022-12-05T11:48:22.301Z,11.37
2022-12-05T11:50:59.200Z,11.70
2022-12-05T11:53:31.851Z,12.10
2022-12-05T11:56:07.735Z,11.23
2022-12-05T11:59:11.241Z,11.97
2022-12-05T12:01:37.855Z,10.70
2022-12-05T12:04:10.171Z,11.83
2022-12-05T12:06:51.594Z,11.53
2022-12-05T12:09:18.022Z,11.40
2022-12-05T12:12:08.514Z,11.13
2022-12-05T12:14:50.276Z,11.47
2022-12-05T12:17:49.471Z,11.17
2022-12-05T12:20:28.392Z,10.73
2022-12-05T12:23:02.618Z,11.30
2022-12-05T12:25:44.666Z,11.20
2022-12-05T12:28:39.398Z,11.07
2022-12-05T12:31:08.597Z,10.53
2022-12-05T12:33:57.170Z,10.60
2022-12-05T12:36:26.605Z,15.17
2022-12-05T12:39:08.443Z,14.23
2022-12-05T12:41:57.196Z,17.00
2022-12-05T12:44:40.730Z,14.47
2022-12-05T12:47:32.602Z,13.70
2022-12-05T12:50:24.303Z,13.83
2022-12-05T12:53:11.076Z,13.40
2022-12-05T12:55:40.379Z,12.63
2022-12-05T12:58:30.036Z,12.70
2022-12-05T13:01:28.733Z,12.57
2022-12-05T13:04:02.659Z,12.40
2022-12-05T13:06:45.722Z,12.87
2022-12-05T13:09:31.993Z,12.77
2022-12-05T13:12:04.882Z,12.77
2022-12-05T13:14:32.504Z,11.93
2022-12-05T13:17:00.654Z,12.13
2022-12-05T13:19:42.626Z,12.27
2022-12-05T13:22:10.263Z,12.03
2022-12-05T13:24:37.003Z,11.37
2022-12-05T13:27:09.548Z,13.23
2022-12-05T13:29:36.877Z,12.50
2022-12-05T13:32:05.834Z,12.33
2022-12-05T13:34:34.725Z,11.90
2022-12-05T13:37:29.327Z,12.37
2022-12-05T13:40:15.870Z,12.50
2022-12-05T13:42:43.159Z,12.60
2022-12-05T13:45:19.594Z,11.60
2022-12-05T13:48:04.418Z,12.27
2022-12-05T13:50:35.765Z,12.20
2022-12-05T13:53:06.710Z,13.17
2022-12-05T13:55:36.525Z,12.60
2022-12-05T13:58:24.950Z,11.63
2022-12-05T14:00:52.553Z,11.77
2022-12-05T14:03:22.384Z,11.60
2022-12-05T14:05:51.552Z,12.47
2022-12-05T14:08:30.758Z,11.83
2022-12-05T14:10:58.459Z,10.60
2022-12-05T14:13:25.471Z,10.43
2022-12-05T14:15:54.755Z,10.93
2022-12-05T14:18:35.217Z,11.50
2022-12-05T14:21:04.702Z,12.13
2022-12-05T14:24:02.293Z,11.70
2022-12-05T14:26:41.124Z,14.10
2022-12-05T14:29:31.047Z,12.23
2022-12-05T14:32:07.015Z,11.37
2022-12-05T14:34:35.509Z,11.43
2022-12-05T14:37:07.077Z,11.63
2022-12-05T14:39:42.726Z,11.63
2022-12-05T14:42:30.710Z,11.13
2022-12-05T14:45:02.680Z,11.23
2022-12-05T14:47:32.621Z,10.17
2022-12-05T14:50:17.928Z,9.90
2022-12-05T14:52:45.483Z,10.13
2022-12-05T14:55:18.636Z,11.10
2022-12-05T14:57:49.185Z,12.07
2022-12-05T15:00:22.691Z,12.47
2022-12-05T15:02:51.973Z,12.63
2022-12-05T15:05:29.766Z,12.47
2022-12-05T15:07:57.182Z,10.57
2022-12-05T15:10:33.864Z,10.17
2022-12-05T15:13:08.139Z,11.07
2022-12-05T15:15:43.221Z,11.00
2022-12-05T15:18:49.139Z,9.77
2022-12-05T15:21:25.037Z,9.67
2022-12-05T15:23:57.634Z,10.80
2022-12-05T15:26:48.980Z,10.57
2022-12-05T15:29:25.457Z,11.23
2022-12-05T15:31:52.151Z,11.60
2022-12-05T15:34:22.973Z,11.13
2022-12-05T15:37:15.635Z,11.27
2022-12-05T15:39:59.952Z,11.00
2022-12-05T15:42:30.343Z,10.63
2022-12-05T15:45:14.921Z,11.27
2022-12-05T15:47:42.500Z,11.23
2022-12-05T15:50:16.654Z,10.97
2022-12-05T15:52:48.444Z,11.07
2022-12-05T15:55:19.449Z,11.13
2022-12-05T15:58:26.885Z,13.27
2022-12-05T16:01:01.125Z,12.13
2022-12-05T16:03:38.880Z,12.03
2022-12-05T16:06:11.558Z,12.43
2022-12-05T16:08:44.263Z,12.30
2022-12-05T16:11:11.710Z,12.17
2022-12-05T16:13:47.820Z,12.47
2022-12-05T16:16:20.441Z,11.43
2022-12-05T16:19:04.939Z,11.93
2022-12-05T16:21:38.964Z,12.03
2022-12-05T16:24:21.659Z,12.47
2022-12-05T16:26:59.539Z,11.53
2022-12-05T16:29:31.152Z,10.83
2022-12-05T16:32:03.042Z,11.80
2022-12-05T16:34:33.308Z,11.93
2022-12-05T16:37:00.756Z,12.10
2022-12-05T16:39:28.366Z,11.93
2022-12-05T16:41:55.322Z,11.83
2022-12-05T16:47:26.986Z,11.57
2022-12-05T16:49:53.648Z,11.80
2022-12-05T16:52:20.407Z,10.30
2022-12-05T16:54:48.899Z,11.60
2022-12-05T16:57:16.477Z,10.73
2022-12-05T16:59:44.720Z,10.17
2022-12-05T17:02:15.011Z,11.43
2022-12-05T17:04:41.841Z,10.70
2022-12-05T17:07:08.944Z,10.90
2022-12-05T17:09:35.557Z,11.17
2022-12-05T17:12:08.590Z,10.40
2022-12-05T17:14:35.246Z,11.30
2022-12-05T17:17:02.148Z,11.17
2022-12-05T17:19:29.139Z,11.10
2022-12-05T17:21:55.703Z,10.60
2022-12-05T17:24:22.396Z,10.20
2022-12-05T17:26:49.215Z,10.03
2022-12-05T17:29:15.843Z,10.20
2022-12-05T17:31:42.495Z,10.30
2022-12-05T17:34:17.945Z,9.73
2022-12-05T17:36:45.593Z,10.10
2022-12-05T17:39:12.145Z,10.17
2022-12-05T17:41:38.984Z,10.80
2022-12-05T17:44:06.296Z,11.43
2022-12-05T17:46:33.278Z,11.00
2022-12-05T17:49:00.458Z,12.50
2022-12-05T17:51:48.081Z,12.57
2022-12-05T17:54:21.601Z,11.60
2022-12-05T17:56:50.879Z,10.43
2022-12-05T17:59:17.768Z,10.83
2022-12-05T18:01:45.460Z,10.23
2022-12-05T18:04:12.016Z,10.50
2022-12-05T18:06:40.345Z,10.20
2022-12-05T18:09:07.301Z,9.70
2022-12-05T18:11:33.874Z,9.70
2022-12-05T18:14:00.724Z,9.80
2022-12-05T18:16:27.398Z,9.47
2022-12-05T18:18:55.111Z,8.73
2022-12-05T18:21:21.768Z,9.17
2022-12-05T18:23:48.416Z,9.73
2022-12-05T18:26:15.013Z,9.70
2022-12-05T18:28:42.008Z,10.10
2022-12-05T18:31:08.571Z,10.03
2022-12-05T18:33:35.271Z,10.77
2022-12-05T18:36:12.255Z,9.87
2022-12-05T18:38:39.512Z,10.43
2022-12-05T18:41:07.263Z,39.97
2022-12-05T18:43:33.876Z,12.30
2022-12-05T18:46:02.514Z,9.80
2022-12-05T18:48:45.856Z,8.97
2022-12-05T18:51:15.160Z,9.07
2022-12-05T18:53:42.988Z,9.13
2022-12-05T18:56:27.114Z,9.20
2022-12-05T18:58:58.704Z,9.87
2022-12-05T19:01:26.632Z,10.50
2022-12-05T19:03:53.692Z,9.13
2022-12-05T19:06:22.312Z,10.40
2022-12-05T19:08:49.231Z,9.17
2022-12-05T19:11:17.879Z,10.43
2022-12-05T19:13:44.795Z,10.00
2022-12-05T19:16:18.880Z,9.33
2022-12-05T19:18:46.938Z,10.03
2022-12-05T19:21:13.931Z,8.87
2022-12-05T19:23:40.753Z,8.37
2022-12-05T19:26:09.745Z,8.00
2022-12-05T19:28:37.162Z,7.57
2022-12-05T19:31:07.864Z,8.43
2022-12-05T19:33:36.806Z,7.87
2022-12-05T19:36:11.876Z,8.00
2022-12-05T19:38:42.658Z,7.20
2022-12-05T19:41:11.996Z,7.60
2022-12-05T19:43:39.849Z,8.03
2022-12-05T19:46:15.867Z,8.43
2022-12-05T19:48:43.127Z,12.53
2022-12-05T19:51:09.882Z,9.33
2022-12-05T19:53:38.485Z,8.47
2022-12-05T19:56:19.353Z,10.10
2022-12-05T19:58:46.406Z,9.63
2022-12-05T20:01:17.432Z,9.43
2022-12-05T20:03:47.690Z,9.17
2022-12-05T20:06:15.519Z,9.13
2022-12-05T20:08:42.578Z,8.80
2022-12-05T20:11:11.899Z,8.63
2022-12-05T20:13:47.626Z,8.90
2022-12-05T20:16:16.454Z,7.93
2022-12-05T20:18:43.185Z,8.70
2022-12-05T20:21:13.356Z,8.30
2022-12-05T20:23:40.353Z,8.63
2022-12-05T20:26:12.522Z,7.80
2022-12-05T20:28:39.789Z,7.23
2022-12-05T20:31:08.118Z,7.20
2022-12-05T20:33:35.675Z,7.20
2022-12-05T20:36:07.819Z,7.23
2022-12-05T20:38:34.931Z,7.47
2022-12-05T20:41:03.232Z,6.87
2022-12-05T20:43:30.189Z,7.03
2022-12-05T20:45:57.562Z,7.07
2022-12-05T20:48:26.544Z,6.77
2022-12-05T20:50:54.672Z,7.53
2022-12-05T20:53:22.758Z,7.07
2022-12-05T20:55:49.362Z,8.07
2022-12-05T20:58:16.052Z,7.90
2022-12-05T21:00:44.061Z,7.53
2022-12-05T21:03:16.968Z,7.67
2022-12-05T21:05:44.183Z,8.80
2022-12-05T21:08:10.945Z,8.90
2022-12-05T21:10:38.507Z,9.07
2022-12-05T21:13:05.364Z,9.43
2022-12-05T21:15:31.966Z,9.37
2022-12-05T21:17:58.889Z,9.07
2022-12-05T21:20:25.403Z,9.47
2022-12-05T21:22:52.101Z,9.03
2022-12-05T21:25:18.644Z,9.60
2022-12-05T21:27:45.151Z,9.70
2022-12-05T21:30:12.429Z,9.80
2022-12-05T21:32:39.401Z,9.80
2022-12-05T21:35:06.097Z,9.73
2022-12-05T21:37:32.596Z,9.63
2022-12-05T21:39:59.684Z,9.17
2022-12-05T21:42:26.356Z,9.07
2022-12-05T21:44:52.987Z,8.07
2022-12-05T21:47:19.501Z,8.27
2022-12-05T21:49:46.060Z,8.10
2022-12-05T21:52:12.903Z,8.90
2022-12-05T21:54:39.452Z,7.80
2022-12-05T21:57:06.207Z,7.97
2022-12-05T21:59:32.756Z,7.97
2022-12-05T22:01:59.748Z,8.60
2022-12-05T22:04:26.304Z,8.10
2022-12-05T22:06:53.246Z,8.53
2022-12-05T22:09:22.778Z,8.60
2022-12-05T22:11:49.502Z,7.80
2022-12-05T22:14:16.347Z,8.57
2022-12-05T22:16:42.917Z,8.40
2022-12-05T22:19:09.526Z,7.87
2022-12-05T22:21:36.178Z,8.00
2022-12-05T22:24:02.923Z,8.07
2022-12-05T22:26:29.743Z,8.50
2022-12-05T22:28:56.497Z,7.77
2022-12-05T22:31:23.732Z,7.43
2022-12-05T22:33:50.548Z,7.37
2022-12-05T22:36:18.596Z,7.30
2022-12-05T22:38:47.448Z,6.87
2022-12-05T22:41:22.699Z,7.53
2022-12-05T22:43:50.106Z,7.40
2022-12-05T22:46:19.036Z,7.90
2022-12-05T22:48:46.421Z,7.83
2022-12-05T22:51:13.612Z,7.97
2022-12-05T22:53:40.581Z,7.50
2022-12-05T22:56:15.639Z,8.00
2022-12-05T22:58:42.955Z,8.30
2022-12-05T23:01:15.389Z,7.30
2022-12-05T23:03:43.251Z,7.93
2022-12-05T23:06:11.967Z,7.97
2022-12-05T23:08:39.591Z,7.80
2022-12-05T23:11:06.885Z,8.00
2022-12-05T23:13:34.910Z,7.60
2022-12-05T23:16:10.079Z,8.43
2022-12-05T23:18:46.965Z,7.57
2022-12-05T23:21:13.776Z,7.57
2022-12-05T23:23:40.894Z,7.17
2022-12-05T23:26:07.836Z,7.83
2022-12-05T23:28:34.868Z,7.77
2022-12-05T23:31:03.000Z,7.57
2022-12-05T23:33:29.721Z,7.87
2022-12-05T23:35:56.478Z,7.97
2022-12-05T23:38:23.152Z,8.40
2022-12-05T23:41:14.331Z,8.87
2022-12-05T23:43:41.322Z,8.47
2022-12-05T23:46:07.913Z,12.03
2022-12-05T23:48:34.507Z,10.73
2022-12-05T23:51:11.273Z,10.27
2022-12-05T23:53:39.966Z,9.73
2022-12-05T23:56:12.465Z,10.87
2022-12-05T23:58:39.871Z,10.90
